createdAt,value
2022-10-26T00:01:13.252Z,5.65
2022-10-26T00:11:24.361Z,6.40
2022-10-26T00:16:30.586Z,4.75
2022-10-26T00:21:33.001Z,6.20
2022-10-26T00:26:33.530Z,6.35
2022-10-26T00:31:34.827Z,4.43
2022-10-26T00:36:38.711Z,7.43
2022-10-26T00:41:38.405Z,5.40
2022-10-26T00:46:41.087Z,7.30
2022-10-26T00:51:54.215Z,6.65
2022-10-26T00:56:57.365Z,7.00
2022-10-26T01:01:57.642Z,5.40
2022-10-26T01:06:58.921Z,6.72
2022-10-26T01:12:01.509Z,10.93
2022-10-26T01:17:06.921Z,9.43
2022-10-26T01:22:57.530Z,5.53
2022-10-26T01:28:36.345Z,6.10
2022-10-26T01:39:22.760Z,5.38
2022-10-26T01:44:46.523Z,6.15
2022-10-26T01:49:58.685Z,6.00
2022-10-26T01:55:41.279Z,6.07
2022-10-26T02:00:47.504Z,5.28
2022-10-26T02:06:13.710Z,8.70
2022-10-26T02:11:33.714Z,8.48
2022-10-26T02:16:44.201Z,5.47
2022-10-26T02:21:51.005Z,5.25
2022-10-26T02:26:53.422Z,7.18
2022-10-26T02:31:56.054Z,7.03
2022-10-26T02:36:56.064Z,8.70
2022-10-26T02:41:56.215Z,4.18
2022-10-26T02:46:59.005Z,4.40
2022-10-26T02:52:06.801Z,10.52
2022-10-26T02:57:24.329Z,6.18
2022-10-26T03:02:29.498Z,4.53
2022-10-26T03:07:41.886Z,6.63
2022-10-26T03:12:43.315Z,7.95
2022-10-26T03:17:44.002Z,6.70
2022-10-26T03:22:50.246Z,7.75
2022-10-26T03:27:59.743Z,5.32
2022-10-26T03:32:58.005Z,10.82
2022-10-26T03:38:03.264Z,4.70
2022-10-26T03:43:02.453Z,6.60
2022-10-26T03:48:12.562Z,10.52
2022-10-26T03:53:38.764Z,4.32
2022-10-26T03:58:39.775Z,7.32
2022-10-26T04:03:44.649Z,4.75
2022-10-26T04:08:50.859Z,4.75
2022-10-26T04:13:51.953Z,6.32
2022-10-26T04:18:54.370Z,8.13
2022-10-26T04:23:59.534Z,3.97
2022-10-26T04:29:03.111Z,7.50
2022-10-26T04:39:06.223Z,3.92
2022-10-26T04:44:09.345Z,5.70
2022-10-26T04:49:08.820Z,5.05
2022-10-26T04:54:08.359Z,4.68
2022-10-26T04:59:11.876Z,4.63
2022-10-26T05:04:21.875Z,5.72
2022-10-26T05:09:22.822Z,9.43
2022-10-26T05:14:25.998Z,6.03
2022-10-26T05:19:41.796Z,8.20
2022-10-26T05:24:56.836Z,11.43
2022-10-26T05:30:03.652Z,5.78
2022-10-26T05:35:05.617Z,7.22
2022-10-26T05:40:04.455Z,12.20
2022-10-26T05:45:10.244Z,9.60
2022-10-26T05:50:09.903Z,10.57
2022-10-26T05:55:19.785Z,12.30
2022-10-26T06:00:25.880Z,9.90
2022-10-26T06:05:30.604Z,9.50
2022-10-26T06:10:31.753Z,5.55
2022-10-26T06:15:41.180Z,7.35
2022-10-26T06:20:52.561Z,5.07
2022-10-26T06:26:27.918Z,8.90
2022-10-26T06:31:44.342Z,6.00
2022-10-26T06:36:51.654Z,5.88
2022-10-26T06:42:04.198Z,4.88
2022-10-26T06:47:43.429Z,4.15
2022-10-26T06:53:27.736Z,6.60
2022-10-26T06:58:46.779Z,4.63
2022-10-26T07:03:59.187Z,7.22
2022-10-26T07:09:03.669Z,4.30
2022-10-26T07:14:01.429Z,6.45
2022-10-26T07:19:14.691Z,5.28
2022-10-26T07:24:14.896Z,10.07
2022-10-26T07:29:21.867Z,4.82
2022-10-26T07:34:32.593Z,4.03
2022-10-26T07:39:36.600Z,4.15
2022-10-26T07:50:16.399Z,4.38
2022-10-26T07:55:31.646Z,4.65
2022-10-26T08:00:47.965Z,4.88
2022-10-26T08:05:56.966Z,6.03
2022-10-26T08:11:02.722Z,5.38
2022-10-26T08:16:03.746Z,6.03
2022-10-26T08:21:15.611Z,4.80
2022-10-26T08:26:36.859Z,4.30
2022-10-26T08:31:35.984Z,6.40
2022-10-26T08:36:34.282Z,4.10
2022-10-26T08:41:57.738Z,4.95
2022-10-26T08:47:20.387Z,7.18
2022-10-26T08:58:01.999Z,5.53
2022-10-26T09:03:09.170Z,7.00
2022-10-26T09:08:41.411Z,7.40
2022-10-26T09:13:58.894Z,5.13
2022-10-26T09:19:20.500Z,3.53
2022-10-26T09:24:33.143Z,4.72
2022-10-26T09:29:52.478Z,3.95
2022-10-26T09:40:28.768Z,7.68
2022-10-26T09:45:54.594Z,8.32
2022-10-26T09:51:06.335Z,6.85
2022-10-26T09:56:10.201Z,3.40
2022-10-26T10:01:42.634Z,4.78
2022-10-26T10:06:56.013Z,3.33
2022-10-26T10:12:12.824Z,5.25
2022-10-26T10:18:15.514Z,16.52
2022-10-26T10:24:15.919Z,5.47
2022-10-26T10:36:44.497Z,3.15
2022-10-26T10:47:34.336Z,5.05
2022-10-26T10:53:27.442Z,6.57
2022-10-26T10:59:57.787Z,2.67
2022-10-26T11:05:40.251Z,6.05
2022-10-26T11:10:47.551Z,8.20
2022-10-26T11:16:03.572Z,2.88
2022-10-26T11:21:34.278Z,3.25
2022-10-26T11:27:19.229Z,5.80
2022-10-26T11:32:42.776Z,3.03
2022-10-26T11:38:45.554Z,11.40
2022-10-26T11:44:52.715Z,6.85
2022-10-26T11:50:12.201Z,3.28
2022-10-26T11:55:29.803Z,3.13
2022-10-26T12:00:30.807Z,2.58
2022-10-26T12:05:54.369Z,2.65
2022-10-26T12:11:17.513Z,3.08
2022-10-26T12:16:29.178Z,3.22
2022-10-26T12:21:32.173Z,3.85
2022-10-26T12:27:45.273Z,3.47
2022-10-26T12:32:30.810Z,3.45
2022-10-26T12:37:36.824Z,2.90
2022-10-26T12:42:48.143Z,3.60
2022-10-26T12:48:15.610Z,4.68
2022-10-26T12:53:42.881Z,2.75
2022-10-26T12:59:27.733Z,4.82
2022-10-26T13:05:39.472Z,8.00
2022-10-26T13:10:23.361Z,6.23
2022-10-26T13:15:22.881Z,3.95
2022-10-26T13:20:26.266Z,2.95
2022-10-26T13:25:29.554Z,5.65
2022-10-26T13:30:33.426Z,3.33
2022-10-26T13:35:33.470Z,3.88
2022-10-26T13:40:32.617Z,4.75
2022-10-26T13:45:41.416Z,3.33
2022-10-26T13:50:55.661Z,8.80
2022-10-26T13:56:05.033Z,2.83
2022-10-26T14:01:10.386Z,5.05
2022-10-26T14:06:33.209Z,5.90
2022-10-26T14:11:43.979Z,2.83
2022-10-26T14:16:48.590Z,4.28
2022-10-26T14:21:50.437Z,4.00
2022-10-26T14:26:49.857Z,4.40
2022-10-26T14:31:50.289Z,4.30
2022-10-26T14:36:52.247Z,3.13
2022-10-26T14:42:00.186Z,3.95
2022-10-26T14:47:01.013Z,3.03
2022-10-26T14:52:09.052Z,12.05
2022-10-26T14:57:36.352Z,5.72
2022-10-26T15:02:36.076Z,9.55
2022-10-26T15:07:37.871Z,9.68
2022-10-26T15:12:37.545Z,7.72
2022-10-26T15:17:39.007Z,8.70
2022-10-26T15:22:46.343Z,10.10
2022-10-26T15:27:45.162Z,5.63
2022-10-26T15:32:45.687Z,10.75
2022-10-26T15:37:45.667Z,10.75
2022-10-26T15:42:49.769Z,10.13
2022-10-26T15:47:50.343Z,31.23
2022-10-26T15:52:52.223Z,18.20
2022-10-26T15:58:04.391Z,14.47
2022-10-26T16:03:05.794Z,20.33
2022-10-26T16:08:06.600Z,21.65
2022-10-26T16:13:30.907Z,18.50
2022-10-26T16:18:32.557Z,24.15
2022-10-26T16:23:35.780Z,33.65
2022-10-26T16:28:34.873Z,35.65
2022-10-26T16:33:38.061Z,29.65
2022-10-26T16:38:37.621Z,32.35
2022-10-26T16:43:40.886Z,30.38
2022-10-26T16:48:40.672Z,36.15
2022-10-26T16:53:41.999Z,39.00
2022-10-26T16:58:43.927Z,43.00
2022-10-26T17:03:46.004Z,50.60
2022-10-26T17:08:45.405Z,46.25
2022-10-26T17:13:48.126Z,36.47
2022-10-26T17:18:47.753Z,37.50
2022-10-26T17:23:50.816Z,43.78
2022-10-26T17:28:57.220Z,45.85
2022-10-26T17:34:16.897Z,37.90
2022-10-26T17:39:43.492Z,42.57
2022-10-26T17:45:13.990Z,45.67
2022-10-26T17:56:19.946Z,42.83
2022-10-26T18:01:30.459Z,39.78
2022-10-26T18:06:40.698Z,29.50
2022-10-26T18:11:59.487Z,31.23
2022-10-26T18:17:19.273Z,32.38
2022-10-26T18:22:30.512Z,37.17
2022-10-26T18:27:32.607Z,32.78
2022-10-26T18:32:42.408Z,26.77
2022-10-26T18:37:45.368Z,21.13
2022-10-26T18:42:50.015Z,18.63
2022-10-26T18:53:22.555Z,18.38
2022-10-26T18:58:47.283Z,17.70
2022-10-26T19:04:00.166Z,13.63
2022-10-26T19:09:19.871Z,13.18
2022-10-26T19:14:36.364Z,17.50
2022-10-26T19:19:54.967Z,14.63
2022-10-26T19:25:07.861Z,19.98
2022-10-26T19:30:25.143Z,22.10
2022-10-26T19:35:31.674Z,22.92
2022-10-26T19:40:48.507Z,17.80
2022-10-26T19:45:55.853Z,23.70
2022-10-26T19:51:12.764Z,9.38
2022-10-26T19:56:23.895Z,16.27
2022-10-26T20:01:41.906Z,13.95
2022-10-26T20:06:44.537Z,10.18
2022-10-26T20:12:01.169Z,12.35
2022-10-26T20:17:10.004Z,10.63
2022-10-26T20:22:23.900Z,11.85
2022-10-26T20:27:28.290Z,7.57
2022-10-26T20:32:26.986Z,6.40
2022-10-26T20:37:30.296Z,7.47
2022-10-26T20:42:33.399Z,8.98
2022-10-26T20:47:31.998Z,7.47
2022-10-26T20:53:05.213Z,7.68
2022-10-26T20:58:57.541Z,7.78
2022-10-26T21:04:02.876Z,12.75
2022-10-26T21:09:09.853Z,13.77
2022-10-26T21:14:12.843Z,14.82
2022-10-26T21:19:13.711Z,11.88
2022-10-26T21:24:50.106Z,14.15
2022-10-26T21:29:58.896Z,10.50
2022-10-26T21:35:37.199Z,13.27
2022-10-26T21:40:49.233Z,10.60
2022-10-26T21:51:52.817Z,7.93
2022-10-26T22:02:26.865Z,21.42
2022-10-26T22:07:34.506Z,34.85
2022-10-26T22:12:52.269Z,32.00
2022-10-26T22:17:58.068Z,23.13
2022-10-26T22:23:13.772Z,26.20
2022-10-26T22:28:38.556Z,21.17
2022-10-26T22:34:12.210Z,18.23
2022-10-26T22:39:31.243Z,13.50
2022-10-26T22:44:41.091Z,11.02
2022-10-26T22:49:49.203Z,8.82
2022-10-26T22:55:03.643Z,12.80
2022-10-26T23:00:06.895Z,7.03
2022-10-26T23:05:10.029Z,8.88
2022-10-26T23:10:20.009Z,7.30
2022-10-26T23:15:23.231Z,8.75
2022-10-26T23:20:37.687Z,11.85
2022-10-26T23:25:41.145Z,8.82
2022-10-26T23:30:42.835Z,10.13
2022-10-26T23:35:56.692Z,11.10
2022-10-26T23:40:58.769Z,8.82
2022-10-26T23:46:07.737Z,8.48
2022-10-26T23:51:10.370Z,14.98
2022-10-26T23:56:13.633Z,7.60
